Time;durP1;ratioP1;P1;durP2;ratioP2;P2;SDS_P1;SDS_P2;PMS_P1;PMS_P2;Temp;Humidity;BMP_temperature;BMP_pressure;BME280_temperature;BME280_humidity;BME280_pressure;Samples;Min_cycle;Max_cycle;Signal;HPM_P1;HPM_P2
2022/07/11 00:02:04;;;;;;;2.60;2.40;;;15.00;99.90;;;;;;4991940;28;20490;-65
2022/07/11 00:04:31;;;;;;;2.20;2.07;;;15.00;99.90;;;;;;4992860;28;20617;-67
2022/07/11 00:06:58;;;;;;;6.33;5.70;;;15.00;99.90;;;;;;4991764;28;20435;-65
2022/07/11 00:09:23;;;;;;;4.67;4.00;;;14.90;99.90;;;;;;4992402;28;20438;-65
2022/07/11 00:11:49;;;;;;;2.73;2.53;;;14.90;99.90;;;;;;4991996;28;20557;-68
2022/07/11 00:14:16;;;;;;;2.50;2.30;;;14.80;99.90;;;;;;4992517;28;20435;-66
2022/07/11 00:16:41;;;;;;;2.50;2.30;;;14.90;99.90;;;;;;4990390;28;20219;-65
2022/07/11 00:19:07;;;;;;;2.07;1.97;;;14.90;99.90;;;;;;4989793;28;20605;-68
2022/07/11 00:21:36;;;;;;;2.30;2.10;;;15.00;99.90;;;;;;4991307;28;20643;-64
2022/07/11 00:24:02;;;;;;;3.20;2.60;;;15.00;99.90;;;;;;4991794;28;20180;-68
2022/07/11 00:26:28;;;;;;;3.80;2.37;;;15.00;99.90;;;;;;4992664;28;20514;-67
2022/07/11 00:28:54;;;;;;;2.27;2.17;;;15.00;99.90;;;;;;4991787;28;20517;-65
2022/07/11 00:31:19;;;;;;;2.97;2.77;;;15.20;99.90;;;;;;4991704;28;20206;-65
2022/07/11 00:33:45;;;;;;;2.57;2.37;;;15.40;99.90;;;;;;4992130;28;20430;-65
2022/07/11 00:36:11;;;;;;;2.57;2.37;;;15.40;99.90;;;;;;4991123;28;20263;-66
2022/07/11 00:38:37;;;;;;;3.00;2.57;;;15.40;99.90;;;;;;4990336;28;20211;-66
2022/07/11 00:41:02;;;;;;;2.70;2.50;;;15.50;99.90;;;;;;4991059;28;20909;-65
2022/07/11 00:43:39;;;;;;;2.13;2.03;;;15.30;99.90;;;;;;4992135;28;20246;-65
2022/07/11 00:46:05;;;;;;;2.20;2.00;;;15.30;99.90;;;;;;4990197;28;20179;-65
2022/07/11 00:48:31;;;;;;;2.73;2.50;;;15.30;99.90;;;;;;4990546;28;20453;-64
2022/07/11 00:50:58;;;;;;;2.77;2.57;;;15.30;99.90;;;;;;4991417;28;20861;-65
2022/07/11 00:53:24;;;;;;;2.13;2.03;;;15.30;99.90;;;;;;4990867;28;20183;-66
2022/07/11 00:55:52;;;;;;;2.93;2.70;;;15.30;99.90;;;;;;4989913;28;20443;-65
2022/07/11 00:58:18;;;;;;;3.53;2.83;;;15.40;99.90;;;;;;4990123;28;20184;-65
2022/07/11 01:00:44;;;;;;;3.23;2.40;;;15.30;99.90;;;;;;4991520;28;20469;-66
2022/07/11 01:03:10;;;;;;;3.70;2.70;;;15.10;99.90;;;;;;4991186;28;20810;-65
2022/07/11 01:05:36;;;;;;;3.10;2.90;;;15.00;99.90;;;;;;4991599;28;20194;-66
2022/07/11 01:08:01;;;;;;;2.50;2.30;;;14.90;99.90;;;;;;4990523;28;20266;-67
2022/07/11 01:10:27;;;;;;;2.50;2.33;;;14.90;99.90;;;;;;4990740;28;20619;-65
2022/07/11 01:12:53;;;;;;;4.17;2.70;;;14.90;99.90;;;;;;4989971;28;20196;-65
2022/07/11 01:15:18;;;;;;;3.40;2.90;;;14.90;99.90;;;;;;4990585;28;20198;-65
2022/07/11 01:17:44;;;;;;;3.70;3.40;;;14.90;99.90;;;;;;4990893;28;20187;-67
2022/07/11 01:20:11;;;;;;;3.40;3.07;;;14.90;99.90;;;;;;4989249;28;20251;-66
2022/07/11 01:22:43;;;;;;;3.33;2.43;;;14.90;99.90;;;;;;4991989;28;20179;-66
2022/07/11 01:25:09;;;;;;;3.80;2.67;;;14.90;99.90;;;;;;4990528;28;20442;-66
2022/07/11 01:27:36;;;;;;;3.70;2.93;;;14.90;99.90;;;;;;4991667;28;20606;-69
2022/07/11 01:30:02;;;;;;;4.00;2.80;;;14.80;99.90;;;;;;4990626;28;20223;-66
2022/07/11 01:32:27;;;;;;;2.87;2.67;;;14.80;99.90;;;;;;4990873;28;20439;-66
2022/07/11 01:34:53;;;;;;;3.90;2.90;;;14.90;99.90;;;;;;4991750;28;20798;-65
2022/07/11 01:37:18;;;;;;;3.47;3.27;;;14.90;99.90;;;;;;4990201;28;20187;-65
2022/07/11 01:39:44;;;;;;;3.60;3.30;;;14.90;99.90;;;;;;4989428;28;20191;-66
2022/07/11 01:42:09;;;;;;;3.33;3.13;;;14.90;99.90;;;;;;4989206;28;20295;-65
2022/07/11 01:44:35;;;;;;;3.37;3.03;;;14.90;99.90;;;;;;4990998;28;20665;-65
2022/07/11 01:47:00;;;;;;;4.87;3.60;;;15.00;99.90;;;;;;4989397;28;20238;-67
2022/07/11 01:49:29;;;;;;;3.87;3.57;;;14.90;99.90;;;;;;4990281;28;20250;-66
2022/07/11 01:51:55;;;;;;;4.00;3.70;;;14.90;99.90;;;;;;4983522;28;20214;-65
2022/07/11 01:54:21;;;;;;;3.07;2.80;;;14.80;99.90;;;;;;4989745;28;20445;-66
2022/07/11 01:56:46;;;;;;;3.90;3.50;;;14.80;99.90;;;;;;4989092;28;20956;-65
2022/07/11 01:59:12;;;;;;;3.43;3.13;;;15.00;99.90;;;;;;4988887;28;20188;-66
2022/07/11 02:01:37;;;;;;;5.13;3.73;;;15.00;99.90;;;;;;4989512;28;20305;-65
2022/07/11 02:04:03;;;;;;;3.60;3.40;;;15.00;99.90;;;;;;4991047;28;20172;-65
2022/07/11 02:06:28;;;;;;;3.53;3.33;;;15.20;99.90;;;;;;4990729;28;20205;-66
2022/07/11 02:08:54;;;;;;;3.13;2.87;;;15.20;99.90;;;;;;4988568;28;20675;-65
2022/07/11 02:11:19;;;;;;;3.10;2.90;;;15.20;99.90;;;;;;4989823;28;20677;-65
2022/07/11 02:13:45;;;;;;;3.00;2.80;;;15.10;99.90;;;;;;4990261;28;20207;-67
2022/07/11 02:16:10;;;;;;;3.70;3.50;;;15.20;99.90;;;;;;4989905;28;20199;-66
2022/07/11 02:18:36;;;;;;;3.33;3.13;;;15.10;99.90;;;;;;4990418;28;20641;-66
2022/07/11 02:21:02;;;;;;;3.40;3.20;;;15.00;99.90;;;;;;4989064;28;20281;-70
2022/07/11 02:23:28;;;;;;;3.40;3.20;;;15.00;99.90;;;;;;4991182;28;20171;-68
2022/07/11 02:25:54;;;;;;;3.63;3.37;;;15.10;99.90;;;;;;4989310;28;20530;-69
2022/07/11 02:28:19;;;;;;;4.23;3.73;;;15.20;99.90;;;;;;4988744;28;21188;-65
2022/07/11 02:30:48;;;;;;;3.90;3.60;;;15.30;99.90;;;;;;4989421;28;20207;-65
2022/07/11 02:33:15;;;;;;;3.27;3.07;;;15.20;99.90;;;;;;4989465;28;20184;-68
2022/07/11 02:35:45;;;;;;;3.97;3.67;;;15.20;99.90;;;;;;4990491;28;20461;-68
2022/07/11 02:38:11;;;;;;;3.53;3.33;;;15.10;99.90;;;;;;4989782;28;20466;-66
2022/07/11 02:40:37;;;;;;;3.53;3.33;;;15.10;99.90;;;;;;4988646;28;20470;-65
2022/07/11 02:43:02;;;;;;;3.90;3.70;;;15.10;99.90;;;;;;4989781;28;20641;-66
2022/07/11 02:45:28;;;;;;;3.63;3.33;;;15.10;99.90;;;;;;4990173;28;20549;-66
2022/07/11 02:47:53;;;;;;;3.57;3.37;;;15.10;99.90;;;;;;4988911;28;20652;-65
2022/07/11 02:50:19;;;;;;;3.83;3.37;;;15.10;99.90;;;;;;4992740;28;20223;-66
2022/07/11 02:52:45;;;;;;;3.87;3.57;;;15.10;99.90;;;;;;4989530;28;20203;-66
2022/07/11 02:55:11;;;;;;;4.10;3.53;;;15.10;99.90;;;;;;4990526;28;20178;-70
2022/07/11 02:57:38;;;;;;;4.27;3.87;;;15.20;99.90;;;;;;4992242;28;20246;-66
2022/07/11 03:00:05;;;;;;;4.10;3.70;;;15.20;99.90;;;;;;4993227;28;20462;-66
2022/07/11 03:02:31;;;;;;;5.03;3.23;;;15.20;99.90;;;;;;4992043;28;20431;-66
2022/07/11 03:04:57;;;;;;;3.47;3.20;;;15.30;99.90;;;;;;4993608;28;20440;-65
2022/07/11 03:07:27;;;;;;;4.20;3.80;;;15.30;99.90;;;;;;4992530;28;20547;-66
2022/07/11 03:09:53;;;;;;;3.80;3.60;;;15.40;99.90;;;;;;4993739;28;20450;-66
2022/07/11 03:12:19;;;;;;;3.97;3.67;;;15.30;99.90;;;;;;4993506;28;20438;-68
2022/07/11 03:14:45;;;;;;;4.63;4.23;;;15.30;99.90;;;;;;4993115;28;20965;-66
2022/07/11 03:17:10;;;;;;;5.90;4.00;;;15.40;99.90;;;;;;4993936;28;20458;-65
2022/07/11 03:19:36;;;;;;;3.60;3.40;;;15.40;99.90;;;;;;4992228;28;20189;-66
2022/07/11 03:22:02;;;;;;;5.33;3.57;;;15.40;99.90;;;;;;4993487;28;20195;-65
2022/07/11 03:24:28;;;;;;;3.90;3.67;;;15.40;99.90;;;;;;4993289;28;20439;-66
2022/07/11 03:26:54;;;;;;;4.47;4.07;;;15.50;99.90;;;;;;4993604;28;20442;-65
2022/07/11 03:29:19;;;;;;;4.10;3.70;;;15.50;99.90;;;;;;4992698;28;20191;-68
2022/07/11 03:31:44;;;;;;;4.33;3.47;;;15.60;99.90;;;;;;4993700;28;20238;-65
2022/07/11 03:34:10;;;;;;;4.40;4.10;;;15.70;99.90;;;;;;4990567;28;20175;-71
2022/07/11 03:36:35;;;;;;;4.93;4.43;;;15.70;99.90;;;;;;4992606;28;20712;-68
2022/07/11 03:39:01;;;;;;;5.77;5.10;;;15.60;99.90;;;;;;4993405;28;20176;-65
2022/07/11 03:41:27;;;;;;;4.17;3.87;;;15.50;99.90;;;;;;4993057;28;20207;-66
2022/07/11 03:43:52;;;;;;;4.40;4.10;;;15.50;99.90;;;;;;4994302;28;20180;-68
2022/07/11 03:46:18;;;;;;;4.30;3.90;;;15.50;99.90;;;;;;4992051;28;20254;-66
2022/07/11 03:48:44;;;;;;;4.40;4.00;;;15.50;99.90;;;;;;4990619;28;20176;-66
2022/07/11 03:51:09;;;;;;;4.60;4.20;;;15.60;99.90;;;;;;5023078;23;20260;-65
2022/07/11 03:53:35;;;;;;;3.83;3.53;;;15.70;99.90;;;;;;5030576;28;20445;-65
2022/07/11 03:56:00;;;;;;;4.40;4.10;;;15.80;99.90;;;;;;5027142;28;20550;-65
2022/07/11 03:58:26;;;;;;;4.93;4.20;;;15.90;99.90;;;;;;5031071;28;20182;-65
2022/07/11 04:00:51;;;;;;;4.37;4.03;;;15.80;99.90;;;;;;5040015;28;20271;-65
2022/07/11 04:03:17;;;;;;;4.03;3.67;;;15.80;99.90;;;;;;5047854;28;20186;-65
2022/07/11 04:05:42;;;;;;;4.80;4.50;;;15.80;99.90;;;;;;5049458;28;20188;-65
2022/07/11 04:08:08;;;;;;;5.10;4.73;;;15.80;99.90;;;;;;5048234;28;20642;-65
2022/07/11 04:10:33;;;;;;;5.73;5.10;;;15.90;99.90;;;;;;5051541;28;20204;-65
2022/07/11 04:12:59;;;;;;;5.47;5.17;;;15.90;99.90;;;;;;5052209;28;20173;-65
2022/07/11 04:15:24;;;;;;;5.87;5.47;;;15.90;99.90;;;;;;5049493;28;20239;-65
2022/07/11 04:17:50;;;;;;;4.47;4.17;;;15.90;99.90;;;;;;5052049;28;20177;-65
2022/07/11 04:20:16;;;;;;;5.33;4.93;;;16.00;99.90;;;;;;5037220;28;20218;-65
2022/07/11 04:22:41;;;;;;;6.10;5.27;;;16.10;99.90;;;;;;5045699;28;20174;-65
2022/07/11 04:25:07;;;;;;;4.63;4.23;;;16.20;99.90;;;;;;5039852;28;20171;-65
2022/07/11 04:27:33;;;;;;;5.00;4.70;;;16.30;99.90;;;;;;5045998;28;20177;-65
2022/07/11 04:29:58;;;;;;;4.80;4.50;;;16.40;99.90;;;;;;5049522;28;20563;-65
2022/07/11 04:32:24;;;;;;;6.03;5.50;;;16.40;99.90;;;;;;5048801;28;20777;-65
2022/07/11 04:34:49;;;;;;;6.97;6.00;;;16.40;99.90;;;;;;5050794;28;20211;-65
2022/07/11 04:37:15;;;;;;;4.60;4.30;;;16.50;99.90;;;;;;5049438;28;20551;-65
2022/07/11 04:39:40;;;;;;;5.50;5.10;;;16.60;99.90;;;;;;5048696;28;20372;-65
2022/07/11 04:42:09;;;;;;;6.03;5.43;;;16.60;99.90;;;;;;5044131;28;20309;-65
2022/07/11 04:44:34;;;;;;;5.10;4.80;;;16.70;99.90;;;;;;5050701;28;20178;-65
2022/07/11 04:47:00;;;;;;;4.63;4.30;;;16.80;99.90;;;;;;5044182;28;20432;-65
2022/07/11 04:49:25;;;;;;;6.20;5.63;;;16.90;99.90;;;;;;5043803;28;20170;-65
2022/07/11 04:51:51;;;;;;;7.03;6.33;;;17.00;99.90;;;;;;5045959;28;20304;-65
2022/07/11 04:54:16;;;;;;;4.77;4.47;;;17.10;99.90;;;;;;5048600;28;20197;-65
2022/07/11 04:56:42;;;;;;;6.17;5.57;;;17.20;99.90;;;;;;5047214;28;20236;-65
2022/07/11 04:59:08;;;;;;;6.00;5.50;;;17.20;99.90;;;;;;5048442;28;20219;-65
2022/07/11 05:01:34;;;;;;;6.00;5.50;;;17.20;99.90;;;;;;5046741;28;20213;-65
2022/07/11 05:04:00;;;;;;;5.30;4.80;;;17.10;99.90;;;;;;5043727;28;20189;-65
2022/07/11 05:06:26;;;;;;;5.77;5.37;;;17.20;99.90;;;;;;5047211;28;20443;-65
2022/07/11 05:08:54;;;;;;;5.97;5.57;;;17.20;99.90;;;;;;5041824;28;20441;-65
2022/07/11 05:11:20;;;;;;;5.43;4.93;;;17.30;99.90;;;;;;5045495;28;20538;-65
2022/07/11 05:13:45;;;;;;;7.50;7.00;;;17.30;99.90;;;;;;5034612;28;20871;-65
2022/07/11 05:16:11;;;;;;;5.27;4.97;;;17.40;99.90;;;;;;5039777;28;20745;-65
2022/07/11 05:18:37;;;;;;;7.43;4.53;;;17.50;99.90;;;;;;5039488;28;20439;-65
2022/07/11 05:21:03;;;;;;;5.07;4.70;;;17.60;99.90;;;;;;5042452;28;20231;-65
2022/07/11 05:23:28;;;;;;;5.20;4.80;;;17.70;99.90;;;;;;5050455;28;20771;-65
2022/07/11 05:25:54;;;;;;;5.77;5.27;;;17.70;99.90;;;;;;5043572;28;20174;-65
2022/07/11 05:28:19;;;;;;;6.37;4.73;;;17.80;99.90;;;;;;5037848;28;20186;-65
2022/07/11 05:30:45;;;;;;;5.00;4.70;;;17.90;99.90;;;;;;5033215;28;20209;-65
2022/07/11 05:33:10;;;;;;;7.07;6.40;;;17.80;99.90;;;;;;5041489;28;20178;-65
2022/07/11 05:35:36;;;;;;;6.47;6.07;;;17.40;99.90;;;;;;5038299;28;20235;-65
2022/07/11 05:38:01;;;;;;;6.83;6.30;;;17.20;99.90;;;;;;5032898;28;20194;-65
2022/07/11 05:40:27;;;;;;;6.23;5.63;;;17.20;99.90;;;;;;5036884;28;20263;-65
2022/07/11 05:42:52;;;;;;;6.80;6.10;;;17.40;99.90;;;;;;5035579;28;20178;-65
2022/07/11 05:45:18;;;;;;;6.33;5.77;;;17.60;99.90;;;;;;5044143;28;20282;-65
2022/07/11 05:47:43;;;;;;;6.33;5.80;;;17.80;99.90;;;;;;5034425;28;20186;-65
2022/07/11 05:50:09;;;;;;;5.47;5.00;;;17.80;99.90;;;;;;5047511;28;20256;-65
2022/07/11 05:52:35;;;;;;;5.20;4.90;;;17.90;99.90;;;;;;5039749;28;20193;-65
2022/07/11 05:55:00;;;;;;;6.20;5.63;;;18.20;99.90;;;;;;5041484;28;20196;-65
2022/07/11 05:57:26;;;;;;;8.33;6.30;;;18.50;99.90;;;;;;5039236;28;20208;-65
2022/07/11 05:59:51;;;;;;;5.03;4.73;;;18.70;99.90;;;;;;5050090;28;20215;-65
2022/07/11 06:02:18;;;;;;;5.50;4.63;;;18.90;99.90;;;;;;5049305;28;20212;-65
2022/07/11 06:04:44;;;;;;;4.37;4.07;;;19.00;99.90;;;;;;5050212;28;20594;-65
2022/07/11 06:07:10;;;;;;;5.83;5.40;;;19.10;99.90;;;;;;5045428;28;20434;-65
2022/07/11 06:09:36;;;;;;;6.10;5.23;;;19.00;99.90;;;;;;5043320;28;20508;-65
2022/07/11 06:12:02;;;;;;;6.30;4.60;;;18.80;99.90;;;;;;5047122;28;20464;-65
2022/07/11 06:14:27;;;;;;;4.53;4.23;;;19.00;99.90;;;;;;5047564;28;20268;-65
2022/07/11 06:16:53;;;;;;;4.90;4.60;;;19.30;99.90;;;;;;5040440;28;20188;-65
2022/07/11 06:19:19;;;;;;;4.77;4.47;;;19.60;99.90;;;;;;5040037;28;20189;-66
2022/07/11 06:21:44;;;;;;;5.30;3.93;;;19.70;99.90;;;;;;5042870;28;20476;-64
2022/07/11 06:24:10;;;;;;;5.30;5.00;;;19.90;99.90;;;;;;5049098;28;20177;-64
2022/07/11 06:26:36;;;;;;;4.20;4.00;;;20.00;99.90;;;;;;5045971;28;20724;-65
2022/07/11 06:29:02;;;;;;;4.80;4.33;;;19.80;99.90;;;;;;5038743;28;20178;-65
2022/07/11 06:31:28;;;;;;;4.53;4.23;;;19.90;99.90;;;;;;5033548;28;20207;-65
2022/07/11 06:33:57;;;;;;;4.07;3.70;;;19.80;99.90;;;;;;5024996;28;20439;-65
2022/07/11 06:36:23;;;;;;;3.97;3.70;;;19.60;99.90;;;;;;5034772;28;20182;-65
2022/07/11 06:38:50;;;;;;;4.93;4.63;;;19.90;99.90;;;;;;5039831;28;20436;-65
2022/07/11 06:41:16;;;;;;;5.13;4.73;;;20.00;99.90;;;;;;5045460;28;20496;-65
2022/07/11 06:43:41;;;;;;;4.40;4.10;;;20.00;99.90;;;;;;5040941;28;20465;-65
2022/07/11 06:46:07;;;;;;;3.90;3.70;;;20.10;99.90;;;;;;5052407;28;20192;-65
2022/07/11 06:48:32;;;;;;;6.77;6.27;;;20.00;99.90;;;;;;5051379;28;20197;-65
2022/07/11 06:50:58;;;;;;;10.13;9.23;;;20.10;99.90;;;;;;5044515;28;20239;-65
2022/07/11 06:53:23;;;;;;;5.83;5.33;;;20.20;99.90;;;;;;5045968;28;21914;-65
2022/07/11 06:55:49;;;;;;;5.13;4.40;;;20.30;99.90;;;;;;5051771;28;20177;-65
2022/07/11 06:58:31;;;;;;;4.87;4.47;;;20.40;99.90;;;;;;5046939;28;20189;-65
2022/07/11 07:00:58;;;;;;;4.30;4.00;;;20.60;99.90;;;;;;5043435;28;20216;-65
2022/07/11 07:03:24;;;;;;;4.37;4.00;;;20.70;99.90;;;;;;5048536;28;20478;-65
2022/07/11 07:05:49;;;;;;;3.93;3.63;;;20.90;99.90;;;;;;5045296;28;20467;-65
2022/07/11 07:08:15;;;;;;;4.83;4.53;;;21.00;99.90;;;;;;5050463;28;20162;-65
2022/07/11 07:10:40;;;;;;;4.80;4.10;;;20.90;99.90;;;;;;5042756;28;20202;-65
2022/07/11 07:13:06;;;;;;;4.70;3.97;;;20.90;99.90;;;;;;5044183;28;20173;-65
2022/07/11 07:15:31;;;;;;;4.53;4.23;;;20.90;99.90;;;;;;5040459;28;20201;-65
2022/07/11 07:17:57;;;;;;;4.70;4.40;;;20.90;99.90;;;;;;5047262;28;20209;-65
2022/07/11 07:20:22;;;;;;;4.47;4.17;;;20.40;99.90;;;;;;5047210;28;20217;-65
2022/07/11 07:22:48;;;;;;;4.17;3.80;;;20.40;99.90;;;;;;5037225;28;20179;-65
2022/07/11 07:25:13;;;;;;;3.70;3.50;;;20.80;99.90;;;;;;5040298;28;20231;-65
2022/07/11 07:27:39;;;;;;;4.20;3.90;;;21.40;99.90;;;;;;5046347;28;20170;-66
2022/07/11 07:30:05;;;;;;;4.77;4.27;;;21.70;99.90;;;;;;5041440;28;20214;-59
2022/07/11 07:32:31;;;;;;;3.43;3.13;;;21.60;99.90;;;;;;5041652;28;20174;-61
2022/07/11 07:34:56;;;;;;;3.97;3.63;;;21.80;99.90;;;;;;5049650;28;20444;-60
2022/07/11 07:37:22;;;;;;;4.10;3.90;;;22.00;99.90;;;;;;5040398;28;20684;-60
2022/07/11 07:39:47;;;;;;;3.00;2.80;;;21.80;99.90;;;;;;5048316;28;20208;-61
2022/07/11 07:42:13;;;;;;;3.50;3.30;;;22.20;99.90;;;;;;5041762;28;20208;-60
2022/07/11 07:44:38;;;;;;;2.90;2.60;;;22.50;99.90;;;;;;5043742;28;20260;-60
2022/07/11 07:47:04;;;;;;;2.73;2.53;;;22.80;99.90;;;;;;5045917;28;20315;-61
2022/07/11 07:49:30;;;;;;;2.90;2.70;;;23.10;99.90;;;;;;5035017;28;20477;-61
2022/07/11 07:51:55;;;;;;;2.73;2.53;;;23.30;99.90;;;;;;5045562;28;20209;-61
2022/07/11 07:54:21;;;;;;;2.47;2.37;;;23.60;99.90;;;;;;5046664;28;20185;-60
2022/07/11 07:56:46;;;;;;;4.53;2.80;;;23.60;99.90;;;;;;5046137;28;20545;-61
2022/07/11 07:59:12;;;;;;;2.90;2.60;;;23.80;99.90;;;;;;5043719;28;20185;-61
2022/07/11 08:01:40;;;;;;;3.20;3.00;;;23.80;99.90;;;;;;5039227;28;20209;-60
2022/07/11 08:04:08;;;;;;;2.67;2.53;;;23.40;99.90;;;;;;5043292;28;20174;-61
2022/07/11 08:06:35;;;;;;;2.20;2.10;;;23.30;99.90;;;;;;5045618;28;20485;-61
2022/07/11 08:09:01;;;;;;;2.10;2.00;;;23.30;99.70;;;;;;5048088;28;20443;-60
2022/07/11 08:11:27;;;;;;;1.60;1.50;;;23.40;99.80;;;;;;5046841;28;21645;-61
2022/07/11 08:13:53;;;;;;;2.13;2.03;;;23.40;99.30;;;;;;5046174;28;20444;-60
2022/07/11 08:16:20;;;;;;;2.37;2.23;;;22.40;99.90;;;;;;5048678;28;20432;-60
2022/07/11 08:18:45;;;;;;;2.10;1.90;;;22.40;99.90;;;;;;5048468;28;20436;-61
2022/07/11 08:21:11;;;;;;;2.97;1.80;;;22.80;99.90;;;;;;5042660;28;20463;-60
2022/07/11 08:23:37;;;;;;;2.13;1.90;;;23.20;99.90;;;;;;5049418;28;20309;-60
2022/07/11 08:26:02;;;;;;;1.90;1.80;;;23.80;99.00;;;;;;5045158;28;20174;-60
2022/07/11 08:28:27;;;;;;;2.00;1.90;;;23.90;97.50;;;;;;5040391;28;20212;-61
2022/07/11 08:30:53;;;;;;;2.33;2.13;;;24.20;97.60;;;;;;5045406;28;20739;-61
2022/07/11 08:33:19;;;;;;;2.40;2.13;;;24.30;97.00;;;;;;5044987;28;20734;-61
2022/07/11 08:35:45;;;;;;;2.53;1.80;;;24.30;96.90;;;;;;5035337;28;20186;-61
2022/07/11 08:38:11;;;;;;;2.50;2.40;;;24.50;96.50;;;;;;5048004;28;20174;-61
2022/07/11 08:40:37;;;;;;;2.30;2.10;;;24.70;96.20;;;;;;5041750;28;20459;-62
2022/07/11 08:43:12;;;;;;;2.20;2.10;;;25.30;94.80;;;;;;5048209;28;21012;-61
2022/07/11 08:45:38;;;;;;;2.20;2.00;;;25.40;93.80;;;;;;5040564;28;20173;-60
2022/07/11 08:48:06;;;;;;;1.43;1.33;;;25.60;93.60;;;;;;5042350;28;20868;-61
2022/07/11 08:50:31;;;;;;;1.53;1.30;;;25.80;92.80;;;;;;5044024;28;20237;-61
2022/07/11 08:52:58;;;;;;;1.30;1.30;;;26.10;92.60;;;;;;5045309;28;20479;-61
2022/07/11 08:55:24;;;;;;;0.80;0.80;;;26.30;91.40;;;;;;5043597;28;20251;-62
2022/07/11 08:57:50;;;;;;;1.10;1.10;;;26.70;84.20;;;;;;5041016;28;20436;-61
2022/07/11 09:00:16;;;;;;;2.93;1.10;;;27.10;82.80;;;;;;5046331;28;21878;-62
2022/07/11 09:02:43;;;;;;;2.13;1.60;;;27.50;81.40;;;;;;5040706;28;20161;-62
2022/07/11 09:05:09;;;;;;;1.40;1.30;;;27.50;81.50;;;;;;5048255;28;20443;-61
2022/07/11 09:07:46;;;;;;;1.50;1.40;;;27.30;80.30;;;;;;5047675;28;20816;-61
2022/07/11 09:10:12;;;;;;;2.00;1.90;;;27.20;81.30;;;;;;5042436;28;20436;-62
2022/07/11 09:12:56;;;;;;;1.37;1.30;;;27.30;80.90;;;;;;5037891;28;20933;-61
2022/07/11 09:15:33;;;;;;;1.60;1.50;;;27.20;79.10;;;;;;5046873;28;21059;-61
2022/07/11 09:17:59;;;;;;;1.97;1.87;;;26.80;79.70;;;;;;5039816;28;20436;-61
2022/07/11 09:20:24;;;;;;;1.73;1.63;;;26.30;80.30;;;;;;5047554;28;20474;-61
2022/07/11 09:25:42;;;;;;;1.70;1.60;;;26.10;82.10;;;;;;5041541;28;20199;-62
2022/07/11 09:28:08;;;;;;;2.07;1.40;;;25.90;83.00;;;;;;5050996;28;20491;-61
2022/07/11 09:30:43;;;;;;;3.70;1.87;;;25.80;82.40;;;;;;5036426;28;20835;-62
2022/07/11 09:33:10;;;;;;;1.63;1.53;;;26.10;81.90;;;;;;5041952;28;20959;-61
2022/07/11 09:35:38;;;;;;;3.73;1.47;;;26.60;81.40;;;;;;5043329;28;20435;-61
2022/07/11 09:38:05;;;;;;;1.87;1.20;;;26.80;78.80;;;;;;5039926;28;20444;-62
2022/07/11 09:40:32;;;;;;;3.57;1.70;;;27.10;78.30;;;;;;5042773;28;20505;-61
2022/07/11 09:43:00;;;;;;;1.73;1.63;;;27.00;79.00;;;;;;5042896;28;20435;-61
2022/07/11 09:45:27;;;;;;;1.90;1.80;;;26.80;78.80;;;;;;5047534;28;20477;-61
2022/07/11 09:47:54;;;;;;;1.57;1.47;;;26.70;79.20;;;;;;5041902;28;20463;-60
2022/07/11 09:50:22;;;;;;;2.57;2.03;;;26.30;78.70;;;;;;5047858;28;20460;-62
2022/07/11 09:53:02;;;;;;;2.00;1.77;;;26.40;79.20;;;;;;5034094;28;20456;-61
2022/07/11 09:55:29;;;;;;;2.20;2.00;;;26.30;79.00;;;;;;5044284;28;20871;-61
2022/07/11 09:57:54;;;;;;;1.60;1.50;;;26.50;79.70;;;;;;5042511;28;20802;-61
2022/07/11 10:00:20;;;;;;;1.93;1.83;;;26.90;79.40;;;;;;5043270;28;20447;-61
2022/07/11 10:02:46;;;;;;;2.03;1.83;;;27.30;77.80;;;;;;5035130;28;20178;-62
2022/07/11 10:05:12;;;;;;;5.03;4.30;;;28.60;74.50;;;;;;5032430;28;20708;-61
2022/07/11 10:07:37;;;;;;;1.97;1.83;;;29.60;71.80;;;;;;5039268;28;20253;-62
2022/07/11 10:10:05;;;;;;;2.10;1.90;;;31.30;67.90;;;;;;5041775;28;20440;-61
2022/07/11 10:12:32;;;;;;;1.57;1.47;;;31.80;63.80;;;;;;5033573;28;20176;-61
2022/07/11 10:15:01;;;;;;;1.50;1.40;;;31.30;62.90;;;;;;5044269;28;20431;-63
2022/07/11 10:17:37;;;;;;;3.43;1.70;;;31.10;61.90;;;;;;5043670;28;20433;-63
2022/07/11 10:20:26;;;;;;;2.70;1.67;;;30.10;61.60;;;;;;5042098;28;22634;-63
2022/07/11 10:23:10;;;;;;;1.53;1.43;;;28.90;64.40;;;;;;5033418;28;20452;-64
2022/07/11 10:25:58;;;;;;;2.10;2.00;;;28.60;66.50;;;;;;5037447;28;20448;-63
2022/07/11 10:28:32;;;;;;;2.33;2.13;;;28.10;67.20;;;;;;5042888;28;20439;-64
2022/07/11 10:31:01;;;;;;;1.63;1.53;;;28.30;67.10;;;;;;5037526;28;20471;-64
2022/07/11 10:33:28;;;;;;;1.70;1.60;;;28.90;66.20;;;;;;5042169;28;20436;-64
2022/07/11 10:35:54;;;;;;;1.50;1.40;;;28.80;64.70;;;;;;5043475;28;21004;-63
2022/07/11 10:38:21;;;;;;;1.70;1.60;;;28.70;65.90;;;;;;5033609;28;20441;-65
2022/07/11 10:40:54;;;;;;;3.03;1.70;;;29.10;65.10;;;;;;5037990;28;20464;-65
2022/07/11 10:43:22;;;;;;;1.93;1.83;;;29.40;64.40;;;;;;5036139;28;20924;-65
2022/07/11 10:46:02;;;;;;;2.13;2.00;;;29.00;64.00;;;;;;5038277;28;20507;-64
2022/07/11 10:48:30;;;;;;;2.10;2.00;;;28.10;66.20;;;;;;5038585;28;20780;-64
2022/07/11 10:51:27;;;;;;;1.90;1.53;;;28.30;66.20;;;;;;5038227;28;21151;-66
2022/07/11 10:53:53;;;;;;;2.10;1.90;;;29.70;65.30;;;;;;5038858;28;20940;-64
2022/07/11 10:56:38;;;;;;;1.83;1.73;;;29.80;62.10;;;;;;5037829;28;20441;-64
2022/07/11 10:59:09;;;;;;;1.73;1.63;;;29.60;62.40;;;;;;5042551;28;20956;-65
2022/07/11 11:01:35;;;;;;;2.30;2.10;;;29.00;62.70;;;;;;5040976;28;20472;-65
2022/07/11 11:04:38;;;;;;;1.80;1.70;;;28.80;63.70;;;;;;5038921;28;20463;-63
2022/07/11 11:07:03;;;;;;;1.80;1.70;;;28.40;63.80;;;;;;5038161;28;20184;-63
2022/07/11 11:09:38;;;;;;;1.73;1.63;;;28.10;64.10;;;;;;5036505;28;20435;-64
2022/07/11 11:12:04;;;;;;;1.83;1.73;;;28.00;64.20;;;;;;5042434;28;20193;-64
2022/07/11 11:14:30;;;;;;;2.37;2.17;;;27.90;64.30;;;;;;5040231;28;20470;-63
2022/07/11 11:17:35;;;;;;;1.80;1.50;;;28.20;64.60;;;;;;5042391;28;20181;-63
2022/07/11 11:20:01;;;;;;;4.00;3.60;;;28.50;64.40;;;;;;5045305;28;20822;-63
2022/07/11 11:22:28;;;;;;;2.50;2.30;;;28.50;64.10;;;;;;5045545;28;20467;-62
2022/07/11 11:24:55;;;;;;;1.70;1.60;;;28.80;64.40;;;;;;5042516;28;20999;-63
2022/07/11 11:27:25;;;;;;;1.67;1.40;;;28.80;63.00;;;;;;5040569;28;20531;-63
2022/07/11 11:29:53;;;;;;;1.50;1.40;;;29.80;62.80;;;;;;5050301;28;20436;-63
2022/07/11 11:32:20;;;;;;;1.70;1.60;;;32.00;59.70;;;;;;5040292;28;20513;-63
2022/07/11 11:34:45;;;;;;;1.50;1.50;;;33.90;55.50;;;;;;5042688;28;20463;-64
2022/07/11 11:37:11;;;;;;;1.53;1.43;;;34.80;52.60;;;;;;5045322;28;20431;-63
2022/07/11 11:39:39;;;;;;;1.90;1.43;;;34.50;51.40;;;;;;5049298;28;20218;-63
2022/07/11 11:42:13;;;;;;;1.70;1.60;;;35.10;51.20;;;;;;5047973;28;20466;-63
2022/07/11 11:45:07;;;;;;;1.90;1.80;;;34.10;50.90;;;;;;5049236;28;21142;-64
2022/07/11 11:47:35;;;;;;;3.57;1.60;;;33.20;52.00;;;;;;5044873;28;20453;-64
2022/07/11 11:50:00;;;;;;;1.40;1.40;;;32.70;52.70;;;;;;5041143;28;20950;-63
2022/07/11 11:52:28;;;;;;;1.80;1.70;;;34.10;51.80;;;;;;5039755;28;20514;-64
2022/07/11 11:54:55;;;;;;;2.03;1.87;;;35.20;49.10;;;;;;5044824;28;20182;-65
2022/07/11 11:57:22;;;;;;;2.00;1.90;;;36.10;47.90;;;;;;5042653;28;20456;-65
2022/07/11 11:59:50;;;;;;;2.00;1.90;;;34.60;47.90;;;;;;5039816;28;20433;-65
2022/07/11 12:02:22;;;;;;;1.67;1.57;;;32.50;49.40;;;;;;5043244;28;20470;-65
2022/07/11 12:04:47;;;;;;;1.97;1.87;;;32.00;51.00;;;;;;5047892;28;20432;-65
2022/07/11 12:07:13;;;;;;;1.73;1.63;;;34.20;49.50;;;;;;5048465;28;20489;-65
2022/07/11 12:09:50;;;;;;;1.90;1.80;;;35.30;48.10;;;;;;5038915;28;20182;-66
2022/07/11 12:15:08;;;;;;;2.23;2.13;;;33.10;48.30;;;;;;5043500;28;20439;-65
2022/07/11 12:17:35;;;;;;;2.07;1.97;;;30.70;51.70;;;;;;5048652;28;20444;-65
2022/07/11 12:20:01;;;;;;;2.03;1.93;;;30.00;53.30;;;;;;5043219;28;20448;-65
2022/07/11 12:22:27;;;;;;;1.87;1.77;;;29.70;54.30;;;;;;5043270;28;20472;-65
2022/07/11 12:24:53;;;;;;;2.30;2.20;;;30.10;53.80;;;;;;5040171;28;20917;-66
2022/07/11 12:27:25;;;;;;;2.17;2.03;;;30.10;53.60;;;;;;5050397;28;20174;-65
2022/07/11 12:29:52;;;;;;;2.13;2.03;;;30.00;54.10;;;;;;5044883;28;20516;-65
2022/07/11 12:32:19;;;;;;;2.03;1.93;;;30.40;53.30;;;;;;5042150;28;20478;-65
2022/07/11 12:34:47;;;;;;;2.20;2.10;;;31.00;52.90;;;;;;5051036;28;20835;-65
2022/07/11 12:37:16;;;;;;;2.20;2.10;;;32.00;51.80;;;;;;5049382;28;20436;-65
2022/07/11 12:40:00;;;;;;;2.90;2.10;;;32.30;51.70;;;;;;5039811;28;20439;-65
2022/07/11 12:42:33;;;;;;;2.67;2.10;;;31.20;52.10;;;;;;5039122;28;20462;-65
2022/07/11 12:45:08;;;;;;;2.47;2.37;;;30.50;52.90;;;;;;5036894;28;20440;-65
2022/07/11 12:47:35;;;;;;;2.50;2.40;;;30.20;53.50;;;;;;5045970;28;20876;-65
2022/07/11 12:50:24;;;;;;;2.03;1.93;;;30.70;53.60;;;;;;5039693;28;20436;-64
2022/07/11 12:53:00;;;;;;;2.47;2.27;;;31.40;53.10;;;;;;5038253;28;20451;-65
2022/07/11 12:55:28;;;;;;;2.07;1.97;;;32.00;52.50;;;;;;5047908;28;20450;-64